createdAt,value
2019-03-31T00:01:56.640Z,5.00
2019-03-31T00:04:27.983Z,5.67
2019-03-31T00:06:59.267Z,6.00
2019-03-31T00:09:30.667Z,6.00
2019-03-31T00:12:02.301Z,7.60
2019-03-31T00:14:34.998Z,8.67
2019-03-31T00:17:06.589Z,7.80
2019-03-31T00:19:38.344Z,6.10
2019-03-31T00:22:09.841Z,5.17
2019-03-31T00:24:41.643Z,5.33
2019-03-31T00:27:13.868Z,5.80
2019-03-31T00:29:45.186Z,5.70
2019-03-31T00:32:16.685Z,5.60
2019-03-31T00:34:48.180Z,5.40
2019-03-31T00:37:19.758Z,6.10
2019-03-31T00:39:51.246Z,5.67
2019-03-31T00:42:22.829Z,5.50
2019-03-31T00:44:54.087Z,5.70
2019-03-31T00:47:25.872Z,5.60
2019-03-31T00:49:57.141Z,6.03
2019-03-31T00:52:28.648Z,6.13
2019-03-31T00:55:00.462Z,6.77
2019-03-31T00:57:31.676Z,7.97
2019-03-31T01:00:03.577Z,7.10
2019-03-31T01:02:36.669Z,5.70
2019-03-31T01:05:08.115Z,6.27
2019-03-31T01:07:39.742Z,5.77
2019-03-31T01:10:11.584Z,6.37
2019-03-31T01:12:42.878Z,6.77
2019-03-31T01:15:16.818Z,7.17
2019-03-31T01:17:48.224Z,6.43
2019-03-31T01:20:19.496Z,6.20
2019-03-31T01:22:50.853Z,5.70
2019-03-31T01:25:23.217Z,6.03
2019-03-31T01:27:54.799Z,5.57
2019-03-31T01:30:26.077Z,5.60
2019-03-31T01:32:57.827Z,6.17
2019-03-31T01:35:30.251Z,5.70
2019-03-31T01:38:01.825Z,6.23
2019-03-31T01:40:33.903Z,5.57
2019-03-31T01:43:05.476Z,6.33
2019-03-31T01:45:37.047Z,7.73
2019-03-31T01:48:08.405Z,8.47
2019-03-31T01:50:39.752Z,8.53
2019-03-31T01:53:11.677Z,7.90
2019-03-31T01:55:43.245Z,9.60
2019-03-31T01:58:14.550Z,17.47
2019-03-31T02:00:53.637Z,21.10
2019-03-31T02:03:25.297Z,23.50
2019-03-31T02:05:56.802Z,20.90
2019-03-31T02:08:29.067Z,12.53
2019-03-31T02:11:00.694Z,15.53
2019-03-31T02:13:32.212Z,7.70
2019-03-31T02:16:03.843Z,6.27
2019-03-31T02:18:35.261Z,6.00
2019-03-31T02:21:06.627Z,7.50
2019-03-31T02:23:38.406Z,6.53
2019-03-31T02:26:09.754Z,6.50
2019-03-31T02:28:41.089Z,6.13
2019-03-31T02:31:13.253Z,6.33
2019-03-31T02:33:45.630Z,6.23
2019-03-31T02:36:17.889Z,6.03
2019-03-31T02:38:50.357Z,6.53
2019-03-31T02:41:22.140Z,6.10
2019-03-31T02:43:54.456Z,7.77
2019-03-31T02:46:28.995Z,7.07
2019-03-31T02:49:01.924Z,6.97
2019-03-31T02:51:33.539Z,7.00
2019-03-31T02:54:05.195Z,6.33
2019-03-31T02:56:37.431Z,6.40
2019-03-31T02:59:09.525Z,7.03
2019-03-31T03:01:41.848Z,7.40
2019-03-31T03:04:14.899Z,7.20
2019-03-31T03:06:46.660Z,7.07
2019-03-31T03:09:18.935Z,7.40
2019-03-31T03:11:50.828Z,6.83
2019-03-31T03:14:24.143Z,6.60
2019-03-31T03:16:55.729Z,6.97
2019-03-31T03:19:27.227Z,6.43
2019-03-31T03:21:58.498Z,6.37
2019-03-31T03:24:30.012Z,6.73
2019-03-31T03:27:01.358Z,6.90
2019-03-31T03:29:32.652Z,7.37
2019-03-31T03:32:03.923Z,7.20
2019-03-31T03:34:35.414Z,6.27
2019-03-31T03:37:06.756Z,7.57
2019-03-31T03:39:38.276Z,6.87
2019-03-31T03:42:10.209Z,6.33
2019-03-31T03:44:41.489Z,7.20
2019-03-31T03:47:12.982Z,7.07
2019-03-31T03:49:44.307Z,7.83
2019-03-31T03:52:17.366Z,7.97
2019-03-31T03:54:48.732Z,7.50
2019-03-31T03:57:20.482Z,7.77
2019-03-31T03:59:51.994Z,7.50
2019-03-31T04:02:23.347Z,7.53
2019-03-31T04:04:54.889Z,7.27
2019-03-31T04:07:26.424Z,7.57
2019-03-31T04:09:58.023Z,7.73
2019-03-31T04:12:29.290Z,7.67
2019-03-31T04:15:00.858Z,7.97
2019-03-31T04:17:32.349Z,7.37
2019-03-31T04:20:03.920Z,7.57
2019-03-31T04:22:35.433Z,7.87
2019-03-31T04:25:07.022Z,7.77
2019-03-31T04:27:38.520Z,7.60
2019-03-31T04:30:10.090Z,7.90
2019-03-31T04:32:41.467Z,8.13
2019-03-31T04:35:12.825Z,8.10
2019-03-31T04:37:44.434Z,8.33
2019-03-31T04:40:15.718Z,8.10
2019-03-31T04:42:47.212Z,9.17
2019-03-31T04:45:18.498Z,10.00
2019-03-31T04:47:50.275Z,8.37
2019-03-31T04:50:21.628Z,8.60
2019-03-31T04:52:53.140Z,8.33
2019-03-31T04:55:24.419Z,8.00
2019-03-31T04:57:56.288Z,8.97
2019-03-31T05:00:27.922Z,9.30
2019-03-31T05:03:00.225Z,9.67
2019-03-31T05:05:31.996Z,9.70
2019-03-31T05:08:04.553Z,9.00
2019-03-31T05:10:36.070Z,8.53
2019-03-31T05:13:07.637Z,8.23
2019-03-31T05:15:38.914Z,8.83
2019-03-31T05:18:10.433Z,8.73
2019-03-31T05:20:42.024Z,8.77
2019-03-31T05:23:13.379Z,8.90
2019-03-31T05:25:44.887Z,8.37
2019-03-31T05:28:16.318Z,8.83
2019-03-31T05:30:47.884Z,8.73
2019-03-31T05:33:19.209Z,9.60
2019-03-31T05:35:50.562Z,9.10
2019-03-31T05:38:22.104Z,9.20
2019-03-31T05:40:53.381Z,9.10
2019-03-31T05:43:24.905Z,9.13
2019-03-31T05:45:56.382Z,8.97
2019-03-31T05:48:27.984Z,9.37
2019-03-31T05:50:59.469Z,9.20
2019-03-31T05:53:30.755Z,9.90
2019-03-31T05:56:02.255Z,9.30
2019-03-31T05:58:33.801Z,9.30
2019-03-31T06:01:05.185Z,8.83
2019-03-31T06:03:36.480Z,9.10
2019-03-31T06:06:07.971Z,8.70
2019-03-31T06:08:39.516Z,8.73
2019-03-31T06:11:11.069Z,9.37
2019-03-31T06:13:42.627Z,11.07
2019-03-31T06:16:14.062Z,12.07
2019-03-31T06:18:45.346Z,10.60
2019-03-31T06:21:16.851Z,10.93
2019-03-31T06:23:48.494Z,10.47
2019-03-31T06:26:20.102Z,13.40
2019-03-31T06:28:51.434Z,12.83
2019-03-31T06:31:22.710Z,12.67
2019-03-31T06:33:54.307Z,12.17
2019-03-31T06:36:25.891Z,13.43
2019-03-31T06:38:58.145Z,14.60
2019-03-31T06:41:29.640Z,14.30
2019-03-31T06:44:01.151Z,12.50
2019-03-31T06:46:32.713Z,12.50
2019-03-31T06:49:04.323Z,12.30
2019-03-31T06:51:35.613Z,11.23
2019-03-31T06:54:07.563Z,12.00
2019-03-31T06:56:39.060Z,11.27
2019-03-31T06:59:10.645Z,11.50
2019-03-31T07:01:42.143Z,11.07
2019-03-31T07:04:13.673Z,9.93
2019-03-31T07:06:45.225Z,11.77
2019-03-31T07:09:16.836Z,11.90
2019-03-31T07:11:48.734Z,11.23
2019-03-31T07:14:20.060Z,10.73
2019-03-31T07:16:51.418Z,9.57
2019-03-31T07:19:23.221Z,9.93
2019-03-31T07:21:54.498Z,12.27
2019-03-31T07:24:25.789Z,10.43
2019-03-31T07:26:57.576Z,10.67
2019-03-31T07:29:28.891Z,12.27
2019-03-31T07:32:00.643Z,10.07
2019-03-31T07:34:32.762Z,9.67
2019-03-31T07:37:04.206Z,10.27
2019-03-31T07:39:35.931Z,10.63
2019-03-31T07:42:07.639Z,10.03
2019-03-31T07:44:39.446Z,10.07
2019-03-31T07:47:10.731Z,11.07
2019-03-31T07:49:42.292Z,12.00
2019-03-31T07:52:14.588Z,11.47
2019-03-31T07:54:45.924Z,12.50
2019-03-31T07:57:17.628Z,11.63
2019-03-31T07:59:50.333Z,12.43
2019-03-31T08:02:22.100Z,11.40
2019-03-31T08:04:53.620Z,11.33
2019-03-31T08:07:25.607Z,11.93
2019-03-31T08:09:57.126Z,12.37
2019-03-31T08:12:28.428Z,12.60
2019-03-31T08:14:59.743Z,11.50
2019-03-31T08:17:31.572Z,12.20
2019-03-31T08:20:03.207Z,12.23
2019-03-31T08:22:34.716Z,12.27
2019-03-31T08:25:06.938Z,12.30
2019-03-31T08:27:39.002Z,12.47
2019-03-31T08:30:11.875Z,12.47
2019-03-31T08:32:43.247Z,12.23
2019-03-31T08:35:14.815Z,12.40
2019-03-31T08:37:46.228Z,11.53
2019-03-31T08:40:18.162Z,11.70
2019-03-31T08:42:49.965Z,11.73
2019-03-31T08:45:21.263Z,12.10
2019-03-31T08:47:52.858Z,12.20
2019-03-31T08:50:24.266Z,12.23
2019-03-31T08:52:55.793Z,11.60
2019-03-31T08:55:27.096Z,11.50
2019-03-31T08:57:58.640Z,12.00
2019-03-31T09:00:52.063Z,11.20
2019-03-31T09:03:23.736Z,11.97
2019-03-31T09:06:01.773Z,11.50
2019-03-31T09:08:28.299Z,12.37
2019-03-31T09:11:00.854Z,12.83
2019-03-31T09:13:33.100Z,12.47
2019-03-31T09:16:04.551Z,12.13
2019-03-31T09:18:37.032Z,11.93
2019-03-31T09:21:08.327Z,12.30
2019-03-31T09:23:39.720Z,12.03
2019-03-31T09:26:11.007Z,12.20
2019-03-31T09:28:42.766Z,12.77
2019-03-31T09:31:15.346Z,12.10
2019-03-31T09:33:46.875Z,12.73
2019-03-31T09:36:18.310Z,13.23
2019-03-31T09:38:49.863Z,12.00
2019-03-31T09:41:21.633Z,12.77
2019-03-31T09:43:53.599Z,13.17
2019-03-31T09:46:24.890Z,12.47
2019-03-31T09:48:56.458Z,12.43
2019-03-31T09:51:27.754Z,13.10
2019-03-31T09:53:59.307Z,12.40
2019-03-31T09:56:30.843Z,25.40
2019-03-31T09:59:02.633Z,12.93
2019-03-31T10:01:34.034Z,12.40
2019-03-31T10:04:05.393Z,12.50
2019-03-31T10:06:36.741Z,13.50
2019-03-31T10:09:08.498Z,12.53
2019-03-31T10:11:40.026Z,13.40
2019-03-31T10:14:11.319Z,11.83
2019-03-31T10:16:42.842Z,13.30
2019-03-31T10:19:14.177Z,13.57
2019-03-31T10:21:45.635Z,13.63
2019-03-31T10:24:17.162Z,15.00
2019-03-31T10:26:48.896Z,15.03
2019-03-31T10:29:20.456Z,21.73
2019-03-31T10:31:52.306Z,14.03
2019-03-31T10:34:23.720Z,14.00
2019-03-31T10:36:55.302Z,13.70
2019-03-31T10:39:27.110Z,14.93
2019-03-31T10:41:58.686Z,14.23
2019-03-31T10:44:30.022Z,13.40
2019-03-31T10:47:01.324Z,13.72
2019-03-31T10:49:32.724Z,13.03
2019-03-31T10:52:04.247Z,12.63
2019-03-31T10:54:35.703Z,11.63
2019-03-31T10:57:07.226Z,12.80
2019-03-31T10:59:38.732Z,11.18
2019-03-31T11:02:10.037Z,11.20
2019-03-31T11:04:41.829Z,10.72
2019-03-31T11:07:13.207Z,11.55
2019-03-31T11:09:45.469Z,9.33
2019-03-31T11:12:17.256Z,10.00
2019-03-31T11:14:48.832Z,9.20
2019-03-31T11:17:20.179Z,9.63
2019-03-31T11:19:51.959Z,8.75
2019-03-31T11:22:27.133Z,7.00
2019-03-31T11:24:58.734Z,5.72
2019-03-31T11:27:30.102Z,5.12
2019-03-31T11:30:01.819Z,4.65
2019-03-31T11:32:34.441Z,5.03
2019-03-31T11:35:06.852Z,4.70
2019-03-31T11:37:39.102Z,4.90
2019-03-31T11:40:10.550Z,4.87
2019-03-31T11:42:42.112Z,5.03
2019-03-31T11:45:13.656Z,5.17
2019-03-31T11:47:45.248Z,4.78
2019-03-31T11:50:17.004Z,4.85
2019-03-31T11:52:48.585Z,4.75
2019-03-31T11:55:19.864Z,4.50
2019-03-31T11:57:51.287Z,5.00
2019-03-31T12:00:22.820Z,4.65
2019-03-31T12:02:54.100Z,4.80
2019-03-31T12:05:25.685Z,4.85
2019-03-31T12:07:57.200Z,4.13
2019-03-31T12:10:28.545Z,4.20
2019-03-31T12:12:59.840Z,4.23
2019-03-31T12:15:31.343Z,4.40
2019-03-31T12:18:02.618Z,4.12
2019-03-31T12:20:34.933Z,5.30
2019-03-31T12:23:06.283Z,5.30
2019-03-31T12:25:37.928Z,5.03
2019-03-31T12:28:09.701Z,5.05
2019-03-31T12:30:41.201Z,4.37
2019-03-31T12:33:13.454Z,4.60
2019-03-31T12:35:44.797Z,4.87
2019-03-31T12:38:16.561Z,4.70
2019-03-31T12:40:47.833Z,4.70
2019-03-31T12:43:19.115Z,5.05
2019-03-31T12:45:50.680Z,4.92
2019-03-31T12:48:22.272Z,5.20
2019-03-31T12:50:54.155Z,4.28
2019-03-31T12:53:25.745Z,5.20
2019-03-31T12:56:00.445Z,3.95
2019-03-31T12:58:30.661Z,4.30
2019-03-31T13:01:02.228Z,4.15
2019-03-31T13:03:33.510Z,3.95
2019-03-31T13:06:04.893Z,3.90
2019-03-31T13:08:36.416Z,4.40
2019-03-31T13:11:07.924Z,6.90
2019-03-31T13:13:39.467Z,4.65
2019-03-31T13:16:11.020Z,5.03
2019-03-31T13:18:42.611Z,5.00
2019-03-31T13:21:13.879Z,5.03
2019-03-31T13:23:45.392Z,5.45
2019-03-31T13:26:17.203Z,5.53
2019-03-31T13:28:48.745Z,5.03
2019-03-31T13:31:20.243Z,4.60
2019-03-31T13:33:51.920Z,4.50
2019-03-31T13:36:23.232Z,4.30
2019-03-31T13:38:57.128Z,5.00
2019-03-31T13:41:29.223Z,5.10
2019-03-31T13:44:00.512Z,4.42
2019-03-31T13:46:32.597Z,5.37
2019-03-31T13:49:04.889Z,5.30
2019-03-31T13:51:37.325Z,5.67
2019-03-31T13:54:08.838Z,5.03
2019-03-31T13:56:40.205Z,5.10
2019-03-31T13:59:11.773Z,5.00
2019-03-31T14:01:43.065Z,4.37
2019-03-31T14:04:14.614Z,4.60
2019-03-31T14:06:45.881Z,5.45
2019-03-31T14:09:18.349Z,4.80
2019-03-31T14:11:50.233Z,5.22
2019-03-31T14:14:21.786Z,5.37
2019-03-31T14:16:53.329Z,5.55
2019-03-31T14:19:24.941Z,5.30
2019-03-31T14:21:56.506Z,5.00
2019-03-31T14:24:27.883Z,4.70
2019-03-31T14:26:59.603Z,4.67
2019-03-31T14:29:31.194Z,4.97
2019-03-31T14:32:02.996Z,4.40
2019-03-31T14:34:34.744Z,4.62
2019-03-31T14:37:06.103Z,4.17
2019-03-31T14:39:37.501Z,4.53
2019-03-31T14:42:08.782Z,4.47
2019-03-31T14:44:40.602Z,4.50
2019-03-31T14:47:12.104Z,4.80
2019-03-31T14:49:43.945Z,4.90
2019-03-31T14:52:26.741Z,4.10
2019-03-31T14:54:48.510Z,4.28
2019-03-31T14:57:19.773Z,4.55
2019-03-31T14:59:51.279Z,4.60
2019-03-31T15:02:22.798Z,4.65
2019-03-31T15:04:54.087Z,5.30
2019-03-31T15:07:25.585Z,4.30
2019-03-31T15:09:57.129Z,4.12
2019-03-31T15:12:28.695Z,4.30
2019-03-31T15:15:00.388Z,4.15
2019-03-31T15:17:31.866Z,5.20
2019-03-31T15:20:03.230Z,4.62
2019-03-31T15:22:34.579Z,4.70
2019-03-31T15:25:06.050Z,4.50
2019-03-31T15:27:37.796Z,4.30
2019-03-31T15:30:09.267Z,5.00
2019-03-31T15:32:40.550Z,4.53
2019-03-31T15:35:11.927Z,5.10
2019-03-31T15:37:43.500Z,5.80
2019-03-31T15:40:15.322Z,5.10
2019-03-31T15:42:46.819Z,5.58
2019-03-31T15:45:18.181Z,5.63
2019-03-31T15:47:49.445Z,5.50
2019-03-31T15:50:20.796Z,5.25
2019-03-31T15:52:52.137Z,4.85
2019-03-31T15:55:23.465Z,5.40
2019-03-31T15:57:54.738Z,6.03
2019-03-31T16:00:26.234Z,6.10
2019-03-31T16:02:57.793Z,17.82
2019-03-31T16:05:29.090Z,9.63
2019-03-31T16:07:59.815Z,7.20
2019-03-31T16:10:30.989Z,7.33
2019-03-31T16:13:02.271Z,6.97
2019-03-31T16:15:33.034Z,7.33
2019-03-31T16:18:04.065Z,7.03
2019-03-31T16:20:34.810Z,6.97
2019-03-31T16:23:05.803Z,7.03
2019-03-31T16:25:38.848Z,6.65
2019-03-31T16:28:09.825Z,7.33
2019-03-31T16:30:40.811Z,7.20
2019-03-31T16:33:12.829Z,7.10
2019-03-31T16:35:43.813Z,7.20
2019-03-31T16:38:14.585Z,7.27
2019-03-31T16:40:45.583Z,7.87
2019-03-31T16:43:16.292Z,7.23
2019-03-31T16:45:47.415Z,8.13
2019-03-31T16:48:18.189Z,7.30
2019-03-31T16:50:49.168Z,7.40
2019-03-31T16:53:20.212Z,8.27
2019-03-31T16:55:50.956Z,7.07
2019-03-31T16:58:21.688Z,7.10
2019-03-31T17:00:52.442Z,8.00
2019-03-31T17:03:23.410Z,7.40
2019-03-31T17:05:54.168Z,7.20
2019-03-31T17:08:24.914Z,8.03
2019-03-31T17:10:56.172Z,8.67
2019-03-31T17:13:27.400Z,9.13
2019-03-31T17:15:59.130Z,14.93
2019-03-31T17:18:29.959Z,17.00
2019-03-31T17:21:00.949Z,16.07
2019-03-31T17:29:43.904Z,27.37
2019-03-31T17:32:14.964Z,29.50
2019-03-31T17:34:45.711Z,28.60
2019-03-31T17:37:16.581Z,29.60
2019-03-31T17:39:47.577Z,27.43
2019-03-31T17:42:18.420Z,28.70
2019-03-31T17:44:49.835Z,28.63
2019-03-31T17:47:20.700Z,29.00
2019-03-31T17:49:51.584Z,29.57
2019-03-31T17:52:22.435Z,29.20
2019-03-31T17:54:53.501Z,29.83
2019-03-31T17:57:24.262Z,29.37
2019-03-31T17:59:56.492Z,31.60
2019-03-31T18:02:27.543Z,30.37
2019-03-31T18:04:58.611Z,30.83
2019-03-31T18:07:29.939Z,30.43
2019-03-31T18:10:00.936Z,30.60
2019-03-31T18:12:31.780Z,29.93
2019-03-31T18:15:02.763Z,31.23
2019-03-31T18:17:34.585Z,29.13
2019-03-31T18:20:06.119Z,31.20
2019-03-31T18:22:37.123Z,30.10
2019-03-31T18:25:08.612Z,29.30
2019-03-31T18:27:39.631Z,30.30
2019-03-31T18:30:10.886Z,31.30
2019-03-31T18:32:41.663Z,32.17
2019-03-31T18:35:12.445Z,32.30
2019-03-31T18:37:43.453Z,31.00
2019-03-31T18:40:14.583Z,31.63
2019-03-31T18:42:45.585Z,31.07
2019-03-31T18:45:16.445Z,30.37
2019-03-31T18:47:47.235Z,30.47
2019-03-31T18:50:17.996Z,30.43
2019-03-31T18:52:49.113Z,32.03
2019-03-31T18:55:32.200Z,31.20
2019-03-31T18:58:11.800Z,30.57
2019-03-31T19:00:49.188Z,31.20
2019-03-31T19:03:57.196Z,41.07
2019-03-31T19:06:49.981Z,32.17
2019-03-31T19:09:32.477Z,30.23
2019-03-31T19:12:28.938Z,31.40
2019-03-31T19:15:20.423Z,30.27
2019-03-31T19:17:57.584Z,30.67
2019-03-31T19:20:54.369Z,30.37
2019-03-31T19:24:05.761Z,30.20
2019-03-31T19:26:53.079Z,29.97
2019-03-31T19:29:37.165Z,30.17
2019-03-31T19:32:30.495Z,30.60
2019-03-31T19:35:09.981Z,30.03
2019-03-31T19:37:59.764Z,29.67
2019-03-31T19:40:41.469Z,30.53
2019-03-31T19:43:42.788Z,29.17
2019-03-31T19:46:35.504Z,30.37
2019-03-31T19:49:28.204Z,29.73
2019-03-31T19:52:16.759Z,29.73
2019-03-31T19:54:56.192Z,28.63
2019-03-31T19:57:37.036Z,29.00
2019-03-31T20:00:26.431Z,28.53
2019-03-31T20:03:03.723Z,29.07
2019-03-31T20:06:01.672Z,28.40
2019-03-31T20:08:50.723Z,28.60
2019-03-31T20:11:38.865Z,27.97
2019-03-31T20:14:31.966Z,28.70
2019-03-31T20:17:12.666Z,28.07
2019-03-31T20:20:01.082Z,27.93
2019-03-31T20:22:53.580Z,28.30
2019-03-31T20:25:42.325Z,27.30
2019-03-31T20:28:20.778Z,26.87
2019-03-31T20:31:04.194Z,28.67
2019-03-31T20:34:06.631Z,27.10
2019-03-31T20:36:52.130Z,27.43
2019-03-31T20:39:35.178Z,27.80
2019-03-31T20:42:23.903Z,27.03
2019-03-31T20:44:54.693Z,27.20
2019-03-31T20:47:25.469Z,27.30
2019-03-31T20:49:56.703Z,26.83
2019-03-31T20:52:27.468Z,28.40
2019-03-31T20:54:58.446Z,27.03
2019-03-31T20:57:29.716Z,28.53
2019-03-31T21:00:00.476Z,28.13
2019-03-31T21:02:31.391Z,27.27
2019-03-31T21:05:02.192Z,27.03
2019-03-31T21:07:33.051Z,28.37
2019-03-31T21:10:04.136Z,29.23
2019-03-31T21:12:36.366Z,27.00
2019-03-31T21:15:08.405Z,27.10
2019-03-31T21:17:39.377Z,27.93
2019-03-31T21:20:10.440Z,27.50
2019-03-31T21:22:41.370Z,27.87
2019-03-31T21:25:13.815Z,28.07
2019-03-31T21:27:44.860Z,28.63
2019-03-31T21:30:15.918Z,28.30
2019-03-31T21:32:46.691Z,27.23
2019-03-31T21:35:17.769Z,28.87
2019-03-31T21:37:48.510Z,28.97
2019-03-31T21:40:19.270Z,28.83
2019-03-31T21:42:50.021Z,30.03
2019-03-31T21:45:20.800Z,28.93
2019-03-31T21:47:51.770Z,29.23
2019-03-31T21:50:23.034Z,27.93
2019-03-31T21:52:53.799Z,29.53
2019-03-31T21:55:24.583Z,29.03
2019-03-31T21:57:55.585Z,28.90
2019-03-31T22:00:38.812Z,28.53
2019-03-31T22:03:11.166Z,28.33
2019-03-31T22:05:42.016Z,27.37
2019-03-31T22:08:13.323Z,27.77
2019-03-31T22:10:44.345Z,28.27
2019-03-31T22:13:15.097Z,27.63
2019-03-31T22:15:45.934Z,26.67
2019-03-31T22:18:16.944Z,26.60
2019-03-31T22:20:48.053Z,27.90
2019-03-31T22:23:19.026Z,26.90
2019-03-31T22:25:49.800Z,26.43
2019-03-31T22:28:21.024Z,26.60
2019-03-31T22:30:51.864Z,26.60
2019-03-31T22:33:22.773Z,26.90
2019-03-31T22:36:11.177Z,25.90
2019-03-31T22:38:42.515Z,24.93
2019-03-31T22:41:13.293Z,25.87
2019-03-31T22:43:44.803Z,25.63
2019-03-31T22:46:15.855Z,25.63
2019-03-31T22:48:46.851Z,24.97
2019-03-31T22:51:17.685Z,25.00
2019-03-31T22:53:48.836Z,24.87
2019-03-31T22:56:19.603Z,25.03
2019-03-31T22:58:50.633Z,26.43
2019-03-31T23:01:21.548Z,27.00
2019-03-31T23:03:52.593Z,24.83
2019-03-31T23:06:23.605Z,27.57
2019-03-31T23:08:54.467Z,27.37
2019-03-31T23:11:25.545Z,27.43
2019-03-31T23:13:56.632Z,27.33
2019-03-31T23:16:27.666Z,28.07
2019-03-31T23:18:58.841Z,27.40
2019-03-31T23:21:30.155Z,27.13
2019-03-31T23:24:01.395Z,27.40
2019-03-31T23:26:32.410Z,28.37
2019-03-31T23:29:03.180Z,27.03
2019-03-31T23:31:34.009Z,27.60
2019-03-31T23:34:04.846Z,26.57
2019-03-31T23:36:35.630Z,28.30
2019-03-31T23:39:07.650Z,28.20
2019-03-31T23:41:38.659Z,29.30
2019-03-31T23:44:09.965Z,27.70
2019-03-31T23:46:40.940Z,28.33
2019-03-31T23:49:12.177Z,26.93
2019-03-31T23:51:42.918Z,27.33
2019-03-31T23:54:14.150Z,26.97
2019-03-31T23:56:44.903Z,27.87
2019-03-31T23:59:15.896Z,27.43
